Time;durP1;ratioP1;P1;durP2;ratioP2;P2;SDS_P1;SDS_P2;PMS_P1;PMS_P2;Temp;Humidity;BMP_temperature;BMP_pressure;BME280_temperature;BME280_humidity;BME280_pressure;Samples;Min_cycle;Max_cycle;Signal;HPM_P1;HPM_P2
2023/01/24 00:01:31;;;;;;;4.30;2.25;;;4.90;99.90;;;;;;5095638;28;20441;-70
2023/01/24 00:03:57;;;;;;;6.22;3.40;;;5.00;99.90;;;;;;5093215;28;20028;-70
2023/01/24 00:06:22;;;;;;;7.10;3.10;;;5.00;99.90;;;;;;5099173;28;20097;-70
2023/01/24 00:08:48;;;;;;;6.38;3.03;;;4.90;99.90;;;;;;5097070;28;20035;-69
2023/01/24 00:11:14;;;;;;;5.68;3.05;;;4.80;99.90;;;;;;5097684;28;20027;-69
2023/01/24 00:13:40;;;;;;;6.55;2.92;;;4.70;99.90;;;;;;5097509;28;20032;-69
2023/01/24 00:16:15;;;;;;;5.72;2.78;;;4.60;99.90;;;;;;5091902;28;20028;-70
2023/01/24 00:18:41;;;;;;;5.45;2.45;;;4.70;99.90;;;;;;5092888;28;20056;-70
2023/01/24 00:21:12;;;;;;;3.45;1.77;;;4.60;99.90;;;;;;5103803;28;20063;-70
2023/01/24 00:23:42;;;;;;;6.05;3.13;;;4.70;99.90;;;;;;5101177;28;20027;-70
2023/01/24 00:26:08;;;;;;;4.72;2.70;;;4.80;99.90;;;;;;5102553;28;20382;-70
2023/01/24 00:28:34;;;;;;;3.55;1.70;;;4.80;99.90;;;;;;5104007;28;20389;-69
2023/01/24 00:31:00;;;;;;;2.38;1.17;;;4.60;99.90;;;;;;5100838;28;20383;-71
2023/01/24 00:33:26;;;;;;;3.35;1.50;;;4.50;99.90;;;;;;5103713;28;20032;-70
2023/01/24 00:35:52;;;;;;;4.88;1.60;;;4.50;99.90;;;;;;5094623;28;20032;-70
2023/01/24 00:38:21;;;;;;;4.03;2.05;;;4.50;99.90;;;;;;5101615;28;20032;-70
2023/01/24 00:40:47;;;;;;;4.63;2.30;;;4.60;99.90;;;;;;5107149;28;20024;-70
2023/01/24 00:43:13;;;;;;;4.32;2.03;;;4.70;99.90;;;;;;5106037;28;20046;-70
2023/01/24 00:45:39;;;;;;;5.70;2.47;;;4.70;99.90;;;;;;5095646;28;20081;-70
2023/01/24 00:48:06;;;;;;;5.32;2.45;;;4.80;99.90;;;;;;5099725;28;20036;-70
2023/01/24 00:50:32;;;;;;;4.88;2.70;;;4.80;99.90;;;;;;5106874;28;20065;-70
2023/01/24 00:52:58;;;;;;;4.60;2.60;;;4.90;99.90;;;;;;5103304;28;20063;-70
2023/01/24 00:55:24;;;;;;;5.43;2.83;;;4.70;99.90;;;;;;5101780;28;20028;-70
2023/01/24 00:57:49;;;;;;;4.75;2.13;;;4.60;99.90;;;;;;5104735;28;20024;-70
2023/01/24 01:00:16;;;;;;;4.22;2.05;;;4.50;99.90;;;;;;5091706;28;20485;-70
2023/01/24 01:02:42;;;;;;;2.60;1.17;;;4.50;99.90;;;;;;5091691;28;20382;-71
2023/01/24 01:05:07;;;;;;;2.92;1.23;;;4.20;99.90;;;;;;5098522;28;20044;-70
2023/01/24 01:07:35;;;;;;;4.47;1.40;;;4.10;99.90;;;;;;5093491;28;20097;-70
2023/01/24 01:10:01;;;;;;;3.42;1.70;;;4.20;99.90;;;;;;5100782;28;20568;-70
2023/01/24 01:12:27;;;;;;;2.50;1.20;;;4.30;99.90;;;;;;5100861;28;20038;-70
2023/01/24 01:14:53;;;;;;;4.50;1.50;;;4.30;99.90;;;;;;5105869;28;20016;-70
2023/01/24 01:17:18;;;;;;;3.55;1.52;;;4.20;99.90;;;;;;5098267;28;20024;-70
2023/01/24 01:19:44;;;;;;;1.73;0.90;;;4.30;99.90;;;;;;5095944;28;20513;-70
2023/01/24 01:22:10;;;;;;;5.97;3.22;;;4.20;99.90;;;;;;5096356;28;20038;-70
2023/01/24 01:24:36;;;;;;;7.28;3.50;;;4.00;99.90;;;;;;5096954;28;20027;-70
2023/01/24 01:27:02;;;;;;;4.65;2.08;;;4.10;99.90;;;;;;5096031;28;20443;-70
2023/01/24 01:29:28;;;;;;;3.85;1.90;;;4.20;99.90;;;;;;5098896;28;20053;-70
2023/01/24 01:31:53;;;;;;;2.47;1.10;;;4.10;99.90;;;;;;5103667;28;20036;-70
2023/01/24 01:34:19;;;;;;;6.85;2.13;;;4.00;99.90;;;;;;5102478;28;20517;-70
2023/01/24 01:36:45;;;;;;;3.10;1.58;;;4.00;99.90;;;;;;5095211;28;20079;-70
2023/01/24 01:39:11;;;;;;;3.58;1.60;;;4.00;99.90;;;;;;5103208;28;20028;-70
2023/01/24 01:41:36;;;;;;;4.82;2.15;;;4.00;99.90;;;;;;5099326;28;20025;-70
2023/01/24 01:44:37;;;;;;;3.80;1.60;;;4.00;99.90;;;;;;5098863;28;20047;-70
2023/01/24 01:47:23;;;;;;;2.92;1.63;;;3.90;99.90;;;;;;5104432;28;20495;-70
2023/01/24 01:49:57;;;;;;;5.50;1.90;;;3.90;99.90;;;;;;5105125;28;20084;-70
2023/01/24 01:52:25;;;;;;;4.47;2.08;;;3.80;99.90;;;;;;5095612;28;20128;-70
2023/01/24 01:54:53;;;;;;;3.08;1.50;;;3.80;99.90;;;;;;5095599;28;20016;-70
2023/01/24 01:57:25;;;;;;;4.13;1.90;;;3.70;99.90;;;;;;5099834;28;20470;-70
2023/01/24 01:59:56;;;;;;;4.05;1.73;;;3.70;99.90;;;;;;5097365;28;20052;-70
2023/01/24 02:02:23;;;;;;;7.93;1.70;;;3.80;99.90;;;;;;5098607;28;20032;-70
2023/01/24 02:04:54;;;;;;;3.83;1.70;;;3.90;99.90;;;;;;5106558;28;20089;-70
2023/01/24 02:07:27;;;;;;;4.10;2.08;;;3.90;99.90;;;;;;5103395;28;20032;-70
2023/01/24 02:09:54;;;;;;;2.85;1.27;;;4.00;99.90;;;;;;5100334;28;20085;-70
2023/01/24 02:12:23;;;;;;;2.45;1.25;;;4.10;99.90;;;;;;5105674;27;20428;-70
2023/01/24 02:17:42;;;;;;;2.78;1.30;;;4.20;99.90;;;;;;5098390;28;20038;-70
2023/01/24 02:20:21;;;;;;;1.85;0.82;;;4.20;99.90;;;;;;5097247;28;20385;-70
2023/01/24 02:22:49;;;;;;;2.40;1.13;;;4.00;99.90;;;;;;5106654;28;20067;-70
2023/01/24 02:25:32;;;;;;;2.42;1.15;;;4.00;99.90;;;;;;5103842;28;20466;-70
2023/01/24 02:27:59;;;;;;;3.90;2.00;;;4.20;99.90;;;;;;5100983;28;20028;-70
2023/01/24 02:30:25;;;;;;;3.70;1.63;;;3.90;99.90;;;;;;5105866;28;20099;-70
2023/01/24 02:32:50;;;;;;;3.60;1.98;;;4.00;99.90;;;;;;5101240;28;20053;-70
2023/01/24 02:35:30;;;;;;;4.90;2.10;;;4.00;99.90;;;;;;5103484;28;20831;-70
2023/01/24 02:37:58;;;;;;;3.40;1.20;;;4.00;99.90;;;;;;5105332;28;20055;-70
2023/01/24 02:40:26;;;;;;;4.82;2.40;;;3.90;99.90;;;;;;5098809;28;20038;-70
2023/01/24 02:42:55;;;;;;;4.53;1.83;;;3.90;99.90;;;;;;5101373;28;20039;-71
2023/01/24 02:45:26;;;;;;;3.40;1.17;;;3.90;99.90;;;;;;5096860;28;20035;-70
2023/01/24 02:47:53;;;;;;;3.47;1.65;;;3.90;99.90;;;;;;5103577;28;20033;-70
2023/01/24 02:50:22;;;;;;;2.22;1.00;;;3.90;99.90;;;;;;5105144;28;20034;-70
2023/01/24 02:55:34;;;;;;;2.75;1.40;;;3.80;99.90;;;;;;5093786;28;20069;-70
2023/01/24 02:58:06;;;;;;;4.47;1.92;;;4.00;99.90;;;;;;5100723;28;20036;-70
2023/01/24 03:00:37;;;;;;;4.57;2.60;;;4.10;99.90;;;;;;5094029;28;20035;-70
2023/01/24 03:03:04;;;;;;;4.13;1.83;;;4.20;99.90;;;;;;5096032;28;20031;-70
2023/01/24 03:05:46;;;;;;;4.75;2.00;;;4.10;99.90;;;;;;5107227;28;20485;-70
2023/01/24 03:08:12;;;;;;;3.80;1.63;;;4.10;99.90;;;;;;5099486;28;20109;-70
2023/01/24 03:10:38;;;;;;;3.80;1.60;;;4.00;99.90;;;;;;5100253;28;20027;-70
2023/01/24 03:34:57;;;;;;;4.63;2.25;;;4.10;99.90;;;;;;5100528;28;20623;-70
2023/01/24 03:40:12;;;;;;;2.00;1.00;;;4.00;99.90;;;;;;5100270;28;20050;-70
2023/01/24 03:42:47;;;;;;;3.60;1.35;;;4.00;99.90;;;;;;5106567;28;20103;-70
2023/01/24 03:45:42;;;;;;;2.92;1.35;;;4.00;99.90;;;;;;5098789;28;20112;-70
2023/01/24 03:48:12;;;;;;;3.55;1.90;;;4.00;99.90;;;;;;5075303;28;20130;-70
2023/01/24 03:53:27;;;;;;;4.30;1.98;;;4.00;99.90;;;;;;5106012;28;20505;-70
2023/01/24 03:55:58;;;;;;;2.22;1.17;;;3.90;99.90;;;;;;5100428;28;20030;-70
2023/01/24 03:58:25;;;;;;;2.35;1.23;;;3.90;99.90;;;;;;5094760;28;20039;-70
2023/01/24 04:00:52;;;;;;;2.72;1.17;;;3.80;99.90;;;;;;5096738;28;20535;-69
2023/01/24 04:03:18;;;;;;;2.83;1.33;;;3.80;99.90;;;;;;5093850;28;20087;-68
2023/01/24 04:05:46;;;;;;;2.75;1.10;;;3.80;99.90;;;;;;5096420;28;20024;-69
2023/01/24 04:08:12;;;;;;;2.50;1.15;;;3.80;99.90;;;;;;5095785;28;20486;-68
2023/01/24 04:10:37;;;;;;;3.35;1.80;;;3.80;99.90;;;;;;5088740;28;20032;-69
2023/01/24 04:13:03;;;;;;;7.47;3.42;;;3.80;99.90;;;;;;5095047;28;20032;-69
2023/01/24 04:15:30;;;;;;;6.35;3.17;;;3.90;99.90;;;;;;5096592;28;20029;-68
2023/01/24 04:18:00;;;;;;;4.25;1.92;;;4.00;99.90;;;;;;5093540;28;20020;-69
2023/01/24 04:20:28;;;;;;;4.03;2.17;;;4.00;99.90;;;;;;5100352;28;20385;-69
2023/01/24 04:22:54;;;;;;;4.53;1.98;;;3.90;99.90;;;;;;5095304;28;20356;-68
2023/01/24 04:25:20;;;;;;;2.63;1.25;;;3.80;99.90;;;;;;5089714;28;20040;-69
2023/01/24 04:27:46;;;;;;;3.63;1.35;;;3.70;99.90;;;;;;5103422;28;20114;-70
2023/01/24 04:30:13;;;;;;;3.28;1.60;;;3.60;99.90;;;;;;5090832;28;20428;-68
2023/01/24 04:32:39;;;;;;;3.25;1.55;;;3.40;99.90;;;;;;5090323;28;20044;-68
2023/01/24 04:35:06;;;;;;;2.78;1.35;;;3.50;99.90;;;;;;5094639;28;20597;-69
2023/01/24 04:37:32;;;;;;;2.30;1.10;;;3.50;99.90;;;;;;5090267;28;20561;-69
2023/01/24 04:39:58;;;;;;;2.33;0.80;;;3.60;99.90;;;;;;5088055;28;20420;-69
2023/01/24 04:42:24;;;;;;;1.35;0.68;;;3.50;99.90;;;;;;5099742;28;20047;-69
2023/01/24 04:44:50;;;;;;;1.77;0.85;;;3.40;99.90;;;;;;5089507;28;20032;-69
2023/01/24 04:47:15;;;;;;;2.13;1.00;;;3.20;99.90;;;;;;5089833;28;20020;-69
2023/01/24 04:49:41;;;;;;;2.53;1.33;;;3.40;99.90;;;;;;5101193;28;20097;-69
2023/01/24 04:52:12;;;;;;;2.90;1.42;;;3.50;99.90;;;;;;5096243;28;20030;-68
2023/01/24 04:54:41;;;;;;;3.75;1.75;;;3.60;99.90;;;;;;5092997;28;20065;-69
2023/01/24 04:57:07;;;;;;;4.60;1.80;;;3.70;99.90;;;;;;5094479;28;20050;-68
2023/01/24 04:59:33;;;;;;;3.35;1.92;;;3.70;99.90;;;;;;5087612;28;20385;-68
2023/01/24 05:01:59;;;;;;;6.53;2.20;;;3.70;99.90;;;;;;5089400;28;20030;-68
2023/01/24 05:04:24;;;;;;;4.93;2.33;;;3.60;99.90;;;;;;5092579;28;20032;-69
2023/01/24 05:06:50;;;;;;;3.33;1.63;;;3.70;99.90;;;;;;5091481;28;20127;-68
2023/01/24 05:09:16;;;;;;;3.30;1.48;;;3.60;99.90;;;;;;5091965;28;20107;-69
2023/01/24 05:11:41;;;;;;;4.03;2.20;;;3.60;99.90;;;;;;5096159;28;20027;-69
2023/01/24 05:14:10;;;;;;;2.78;1.48;;;3.50;99.90;;;;;;5096138;28;20114;-69
2023/01/24 05:16:36;;;;;;;3.50;1.92;;;3.50;99.90;;;;;;5094084;28;20029;-69
2023/01/24 05:19:03;;;;;;;5.20;1.58;;;3.50;99.90;;;;;;5089447;28;20842;-69
2023/01/24 05:21:29;;;;;;;8.00;2.85;;;3.50;99.90;;;;;;5094454;28;20537;-69
2023/01/24 05:23:54;;;;;;;3.60;1.30;;;3.40;99.90;;;;;;5087895;28;20134;-69
2023/01/24 05:26:22;;;;;;;3.33;1.30;;;3.30;99.90;;;;;;5097034;28;20044;-69
2023/01/24 05:28:49;;;;;;;2.60;1.20;;;3.30;99.90;;;;;;5093380;28;20446;-69
2023/01/24 05:31:15;;;;;;;2.97;1.60;;;3.40;99.90;;;;;;5097181;28;20024;-68
2023/01/24 05:33:41;;;;;;;3.15;1.58;;;3.40;99.90;;;;;;5094881;28;20024;-69
2023/01/24 05:36:13;;;;;;;4.07;1.55;;;3.40;99.90;;;;;;5092537;28;20109;-70
2023/01/24 05:38:39;;;;;;;3.10;1.58;;;3.40;99.90;;;;;;5093060;28;20160;-69
2023/01/24 05:41:06;;;;;;;3.08;1.38;;;3.50;99.90;;;;;;5097331;28;20126;-68
2023/01/24 05:43:33;;;;;;;3.17;1.55;;;3.50;99.90;;;;;;5095329;28;20026;-69
2023/01/24 05:46:00;;;;;;;3.38;1.63;;;3.60;99.90;;;;;;5082138;28;20398;-68
2023/01/24 05:48:26;;;;;;;4.22;1.70;;;3.70;99.90;;;;;;5098554;28;20139;-69
2023/01/24 05:50:59;;;;;;;4.65;1.88;;;3.70;99.90;;;;;;5091135;28;20058;-68
2023/01/24 05:53:27;;;;;;;5.38;2.47;;;3.60;99.90;;;;;;5097284;28;20027;-69
2023/01/24 05:56:01;;;;;;;3.83;1.80;;;3.70;99.90;;;;;;5096086;28;20127;-69
2023/01/24 05:58:29;;;;;;;4.85;2.42;;;3.60;99.90;;;;;;5094538;28;20347;-69
2023/01/24 06:00:55;;;;;;;3.65;1.92;;;3.50;99.90;;;;;;5091516;28;20023;-69
2023/01/24 06:03:21;;;;;;;3.15;1.60;;;3.50;99.90;;;;;;5093364;28;20059;-70
2023/01/24 06:05:52;;;;;;;2.88;1.60;;;3.50;99.90;;;;;;5092145;28;20462;-69
2023/01/24 06:08:18;;;;;;;3.15;1.35;;;3.70;99.90;;;;;;5092838;28;20466;-68
2023/01/24 06:10:44;;;;;;;5.07;1.75;;;3.80;99.90;;;;;;5095925;28;20107;-68
2023/01/24 06:13:11;;;;;;;4.90;1.98;;;3.90;99.90;;;;;;5092582;28;20549;-69
2023/01/24 06:15:38;;;;;;;5.32;2.38;;;3.90;99.90;;;;;;5092134;28;20027;-69
2023/01/24 06:18:04;;;;;;;4.80;2.38;;;3.90;99.90;;;;;;5096057;28;20027;-69
2023/01/24 06:20:30;;;;;;;5.28;2.65;;;3.90;99.90;;;;;;5094171;28;20489;-68
2023/01/24 06:23:07;;;;;;;4.80;2.80;;;3.60;99.90;;;;;;5096312;28;20026;-69
2023/01/24 06:25:33;;;;;;;3.95;1.95;;;3.70;99.90;;;;;;5099394;28;20032;-69
2023/01/24 06:27:59;;;;;;;4.53;2.13;;;3.90;99.90;;;;;;5093073;28;20030;-68
2023/01/24 06:30:25;;;;;;;3.85;2.00;;;3.90;99.90;;;;;;5095924;28;20032;-70
2023/01/24 06:33:17;;;;;;;7.07;2.58;;;3.80;99.90;;;;;;5095452;28;20473;-69
2023/01/24 06:36:05;;;;;;;5.60;2.58;;;3.90;99.90;;;;;;5090471;28;20035;-69
2023/01/24 06:38:31;;;;;;;5.30;2.00;;;3.80;99.90;;;;;;5054296;28;20028;-69
2023/01/24 06:41:00;;;;;;;3.72;1.65;;;3.70;99.90;;;;;;5096482;28;20143;-69
2023/01/24 06:43:26;;;;;;;4.60;1.60;;;3.70;99.90;;;;;;5092530;28;20074;-69
2023/01/24 06:45:51;;;;;;;3.00;1.40;;;3.70;99.90;;;;;;5094724;28;20166;-70
2023/01/24 06:48:18;;;;;;;3.92;1.27;;;3.60;99.90;;;;;;5087144;28;20024;-70
2023/01/24 06:50:44;;;;;;;4.03;2.10;;;3.50;99.90;;;;;;5088259;28;20567;-69
2023/01/24 06:53:10;;;;;;;11.85;5.85;;;3.40;99.90;;;;;;5090291;28;20722;-69
2023/01/24 06:55:36;;;;;;;14.25;6.47;;;3.50;99.90;;;;;;5090271;28;20024;-69
2023/01/24 06:58:03;;;;;;;5.95;2.88;;;3.70;99.90;;;;;;5095533;28;20622;-69
2023/01/24 07:00:30;;;;;;;5.60;3.17;;;3.70;99.90;;;;;;5094511;28;20543;-69
2023/01/24 07:02:58;;;;;;;3.97;1.90;;;3.60;99.90;;;;;;5090158;28;20039;-69
2023/01/24 07:05:25;;;;;;;5.43;2.42;;;3.50;99.90;;;;;;5093028;28;20044;-69
2023/01/24 07:07:50;;;;;;;6.10;3.10;;;3.60;99.90;;;;;;5087981;28;20539;-69
2023/01/24 07:10:16;;;;;;;4.78;2.80;;;3.80;99.90;;;;;;5100645;28;20032;-69
2023/01/24 07:12:42;;;;;;;3.88;2.00;;;3.90;99.90;;;;;;5098952;28;20481;-69
2023/01/24 07:15:09;;;;;;;4.07;2.08;;;3.90;99.90;;;;;;5091224;28;20036;-69
2023/01/24 07:17:34;;;;;;;3.90;2.25;;;3.70;99.90;;;;;;5098821;28;20036;-70
2023/01/24 07:20:00;;;;;;;4.22;2.08;;;3.70;99.90;;;;;;5101367;28;20023;-71
2023/01/24 07:22:26;;;;;;;4.95;1.88;;;3.60;99.90;;;;;;5098436;28;20517;-71
2023/01/24 07:24:53;;;;;;;5.78;3.15;;;3.60;99.90;;;;;;5099095;28;20028;-70
2023/01/24 07:27:18;;;;;;;4.90;2.65;;;3.70;99.90;;;;;;5102584;28;20084;-71
2023/01/24 07:29:45;;;;;;;5.43;2.65;;;3.80;99.90;;;;;;5100768;28;20028;-70
2023/01/24 07:32:11;;;;;;;7.72;2.67;;;3.80;99.90;;;;;;5100771;28;20024;-70
2023/01/24 07:34:37;;;;;;;5.15;2.72;;;3.90;99.90;;;;;;5102491;28;20046;-70
2023/01/24 07:37:06;;;;;;;4.47;2.28;;;3.80;99.90;;;;;;5103066;28;20501;-70
2023/01/24 07:39:32;;;;;;;4.03;2.10;;;3.80;99.90;;;;;;5094075;28;20055;-70
2023/01/24 07:41:57;;;;;;;4.18;2.28;;;3.60;99.90;;;;;;5091304;28;20120;-70
2023/01/24 07:44:23;;;;;;;21.30;2.95;;;3.60;99.90;;;;;;5096343;28;20031;-71
2023/01/24 07:46:49;;;;;;;4.55;2.22;;;3.70;99.90;;;;;;5092602;28;20148;-70
2023/01/24 07:49:14;;;;;;;5.35;2.60;;;3.80;99.90;;;;;;5100876;28;20040;-72
2023/01/24 07:51:40;;;;;;;6.18;2.58;;;3.70;99.90;;;;;;5095206;28;20024;-71
2023/01/24 07:54:06;;;;;;;4.20;2.63;;;3.70;99.90;;;;;;5097901;28;20375;-71
2023/01/24 07:56:32;;;;;;;6.82;2.78;;;3.80;99.90;;;;;;5095370;28;20035;-71
2023/01/24 07:58:58;;;;;;;5.60;3.28;;;4.00;99.90;;;;;;5091726;28;20024;-73
2023/01/24 08:01:24;;;;;;;5.78;3.20;;;4.50;99.90;;;;;;5099708;28;20119;-71
2023/01/24 08:03:54;;;;;;;6.05;3.00;;;4.20;99.90;;;;;;5096188;28;20024;-72
2023/01/24 08:06:20;;;;;;;10.30;2.83;;;4.00;99.90;;;;;;5093208;28;20067;-73
2023/01/24 08:08:45;;;;;;;8.20;2.95;;;6.20;99.90;;;;;;5090936;28;20136;-72
2023/01/24 08:11:13;;;;;;;5.60;3.03;;;6.20;99.90;;;;;;5093944;28;20516;-72
2023/01/24 08:13:39;;;;;;;9.93;3.00;;;5.00;99.90;;;;;;5090967;28;20035;-72
2023/01/24 08:16:05;;;;;;;7.00;3.10;;;4.50;99.90;;;;;;5094297;28;20035;-72
2023/01/24 08:18:31;;;;;;;5.22;2.65;;;4.30;99.90;;;;;;5096864;28;20036;-71
2023/01/24 08:20:57;;;;;;;4.80;2.95;;;4.10;99.90;;;;;;5099515;28;20024;-72
2023/01/24 08:23:23;;;;;;;5.25;3.00;;;4.10;99.90;;;;;;5094793;28;20024;-72
2023/01/24 08:25:49;;;;;;;6.40;2.97;;;4.10;99.90;;;;;;5094488;28;20096;-72
2023/01/24 08:28:15;;;;;;;5.88;2.72;;;4.20;99.90;;;;;;5089372;28;20394;-71
2023/01/24 08:30:40;;;;;;;5.03;2.83;;;4.30;99.90;;;;;;5098937;28;20011;-71
2023/01/24 08:33:06;;;;;;;6.43;3.28;;;4.40;99.90;;;;;;5102465;28;20038;-71
2023/01/24 08:35:33;;;;;;;5.45;2.83;;;4.40;99.90;;;;;;5098390;28;20024;-72
2023/01/24 08:37:59;;;;;;;6.68;2.83;;;4.50;99.90;;;;;;5099739;28;20128;-74
2023/01/24 08:40:25;;;;;;;12.85;6.60;;;4.50;99.90;;;;;;5096875;28;20473;-73
2023/01/24 08:42:52;;;;;;;4.90;2.80;;;4.60;99.90;;;;;;5097087;28;20024;-72
2023/01/24 08:45:17;;;;;;;7.10;2.60;;;5.30;99.90;;;;;;5101198;28;20043;-73
2023/01/24 08:47:43;;;;;;;4.03;2.33;;;5.00;99.90;;;;;;5093015;28;20924;-73
2023/01/24 08:50:09;;;;;;;4.68;2.08;;;4.90;99.90;;;;;;5101418;28;20081;-73
2023/01/24 08:52:35;;;;;;;5.97;2.97;;;4.90;99.90;;;;;;5096481;28;20050;-73
2023/01/24 08:55:01;;;;;;;5.63;2.67;;;4.90;99.90;;;;;;5098169;28;20490;-74
2023/01/24 08:57:27;;;;;;;7.05;3.85;;;5.00;99.90;;;;;;5098551;28;20493;-73
2023/01/24 08:59:53;;;;;;;5.32;3.00;;;5.10;99.90;;;;;;5099776;28;20480;-73
2023/01/24 09:02:19;;;;;;;6.90;3.55;;;5.20;99.90;;;;;;5099359;28;20057;-73
2023/01/24 09:04:44;;;;;;;11.50;6.78;;;5.20;99.90;;;;;;5103662;28;20091;-73
2023/01/24 09:07:11;;;;;;;24.90;16.48;;;5.20;99.90;;;;;;5098345;28;20024;-73
2023/01/24 09:09:37;;;;;;;30.80;20.83;;;5.30;99.90;;;;;;5091260;28;20032;-73
2023/01/24 09:12:03;;;;;;;13.80;8.00;;;5.30;99.90;;;;;;5104278;28;20434;-73
2023/01/24 09:14:28;;;;;;;10.30;5.07;;;5.30;99.90;;;;;;5090191;28;20115;-72
2023/01/24 09:16:54;;;;;;;10.15;3.58;;;5.40;99.90;;;;;;5090436;28;20054;-73
2023/01/24 09:19:20;;;;;;;8.48;4.65;;;5.40;99.90;;;;;;5100218;28;20028;-73
2023/01/24 09:21:51;;;;;;;10.73;6.55;;;5.40;99.90;;;;;;5096743;28;20024;-72
2023/01/24 09:24:17;;;;;;;11.98;7.53;;;5.40;99.90;;;;;;5098959;28;20024;-73
2023/01/24 09:26:44;;;;;;;9.77;5.72;;;5.50;99.90;;;;;;5091102;28;20043;-73
2023/01/24 09:29:09;;;;;;;7.97;4.80;;;5.60;99.90;;;;;;5100872;28;20024;-73
2023/01/24 09:31:36;;;;;;;10.07;4.25;;;5.60;99.90;;;;;;5097496;28;20028;-72
2023/01/24 09:34:02;;;;;;;10.05;4.53;;;5.60;99.90;;;;;;5092796;28;20744;-73
2023/01/24 09:36:29;;;;;;;7.28;4.40;;;5.60;99.90;;;;;;5094404;28;20532;-73
2023/01/24 09:38:56;;;;;;;5.65;3.05;;;5.40;99.90;;;;;;5097310;28;20023;-73
2023/01/24 09:41:58;;;;;;;6.93;3.55;;;5.30;99.90;;;;;;5098027;28;20486;-73
2023/01/24 09:44:45;;;;;;;6.25;3.55;;;5.20;99.90;;;;;;5097009;28;20032;-73
2023/01/24 09:47:41;;;;;;;7.18;3.90;;;5.20;99.90;;;;;;5080752;28;20131;-73
2023/01/24 09:50:16;;;;;;;7.25;4.40;;;5.30;99.90;;;;;;5095582;28;20032;-73
2023/01/24 09:52:49;;;;;;;8.57;4.20;;;5.20;99.90;;;;;;5099053;28;20051;-73
2023/01/24 09:55:28;;;;;;;8.68;4.40;;;5.20;99.90;;;;;;5095589;28;20035;-72
2023/01/24 09:58:00;;;;;;;6.50;3.05;;;5.30;99.90;;;;;;5096265;28;20111;-73
2023/01/24 10:00:29;;;;;;;7.05;3.78;;;5.40;99.90;;;;;;5094761;28;20028;-73
2023/01/24 10:02:57;;;;;;;5.95;3.33;;;5.50;99.90;;;;;;5092204;28;20610;-73
2023/01/24 10:05:45;;;;;;;13.02;6.90;;;5.80;99.90;;;;;;5090763;28;20592;-73
2023/01/24 10:08:16;;;;;;;15.57;7.43;;;5.90;99.90;;;;;;5081786;28;20395;-72
2023/01/24 10:10:54;;;;;;;95.95;49.80;;;5.90;99.90;;;;;;5098533;28;20024;-73
2023/01/24 10:13:26;;;;;;;43.20;24.20;;;5.90;99.90;;;;;;5094043;28;20684;-73
2023/01/24 10:16:30;;;;;;;11.25;6.47;;;5.80;99.90;;;;;;5095642;28;20035;-73
2023/01/24 10:19:21;;;;;;;11.93;6.15;;;5.80;99.90;;;;;;5086356;28;20048;-73
2023/01/24 10:22:11;;;;;;;8.25;4.65;;;6.00;99.90;;;;;;5094616;28;20028;-72
2023/01/24 10:24:41;;;;;;;9.02;4.40;;;6.00;99.90;;;;;;5096589;28;20031;-72
2023/01/24 10:27:30;;;;;;;17.00;10.45;;;6.00;99.90;;;;;;5090434;28;20482;-73
2023/01/24 10:30:01;;;;;;;14.07;7.70;;;6.00;99.90;;;;;;5091328;28;20586;-73
2023/01/24 10:32:32;;;;;;;10.95;5.18;;;6.10;99.90;;;;;;5095244;28;20039;-73
2023/01/24 10:35:17;;;;;;;10.98;6.20;;;6.20;99.90;;;;;;5096840;28;20123;-73
2023/01/24 10:37:47;;;;;;;18.20;8.60;;;6.30;99.90;;;;;;5099271;28;20052;-73
2023/01/24 10:40:14;;;;;;;14.85;7.20;;;6.40;99.90;;;;;;5099640;28;20035;-73
2023/01/24 10:42:41;;;;;;;8.40;4.32;;;6.40;99.90;;;;;;5092464;28;20078;-73
2023/01/24 10:45:34;;;;;;;12.85;7.63;;;6.40;99.90;;;;;;5092181;28;20111;-73
2023/01/24 10:48:09;;;;;;;11.55;6.28;;;6.50;99.90;;;;;;5088032;28;20027;-72
2023/01/24 10:50:41;;;;;;;6.88;3.75;;;6.60;99.90;;;;;;5094788;28;20023;-73
2023/01/24 10:53:24;;;;;;;14.32;8.43;;;6.60;99.90;;;;;;5096577;28;20028;-73
2023/01/24 10:56:02;;;;;;;12.70;7.63;;;6.90;99.90;;;;;;5096321;28;20032;-72
2023/01/24 10:58:57;;;;;;;12.15;7.82;;;6.90;99.90;;;;;;5096337;28;20048;-73
2023/01/24 11:01:37;;;;;;;10.27;5.88;;;6.90;99.90;;;;;;5095157;28;20051;-73
2023/01/24 11:04:15;;;;;;;29.92;20.25;;;6.90;99.90;;;;;;5093864;28;20039;-72
2023/01/24 11:06:44;;;;;;;15.90;10.40;;;6.90;99.90;;;;;;5099650;28;20040;-73
2023/01/24 11:09:23;;;;;;;24.02;15.27;;;7.00;99.90;;;;;;5093865;28;20032;-73
2023/01/24 11:11:56;;;;;;;10.75;7.60;;;6.70;99.90;;;;;;5096939;28;20031;-72
2023/01/24 11:14:27;;;;;;;15.18;8.75;;;6.70;99.90;;;;;;5103281;28;20032;-73
2023/01/24 11:16:56;;;;;;;28.10;16.55;;;6.70;99.90;;;;;;5093448;28;20035;-72
2023/01/24 11:19:27;;;;;;;35.30;23.92;;;6.60;99.90;;;;;;5092003;28;20394;-73
2023/01/24 11:21:58;;;;;;;28.25;21.00;;;6.40;99.90;;;;;;5092222;28;20028;-73
2023/01/24 11:24:24;;;;;;;20.08;12.02;;;6.40;99.90;;;;;;5101514;28;20032;-72
2023/01/24 11:26:56;;;;;;;15.30;8.50;;;6.40;99.90;;;;;;5096885;28;20055;-72
2023/01/24 11:29:22;;;;;;;12.73;8.07;;;6.50;99.90;;;;;;5089482;28;20024;-72
2023/01/24 11:31:51;;;;;;;31.45;22.48;;;6.50;99.90;;;;;;5094684;28;20026;-72
2023/01/24 11:34:40;;;;;;;12.45;8.05;;;6.30;99.90;;;;;;5090761;28;20028;-73
2023/01/24 11:37:41;;;;;;;8.60;5.43;;;6.40;99.90;;;;;;5092618;28;20049;-72
2023/01/24 11:40:18;;;;;;;18.10;10.57;;;6.30;99.90;;;;;;5092685;28;20169;-72
2023/01/24 11:43:08;;;;;;;19.75;13.38;;;6.40;99.90;;;;;;5098444;28;20023;-73
2023/01/24 11:46:05;;;;;;;10.32;5.50;;;6.50;99.90;;;;;;5093524;28;20149;-72
2023/01/24 11:48:46;;;;;;;10.85;5.38;;;6.50;99.90;;;;;;5092026;28;20024;-72
2023/01/24 11:51:31;;;;;;;12.18;7.07;;;6.70;99.90;;;;;;5094276;28;20024;-72
2023/01/24 11:54:05;;;;;;;47.28;25.58;;;6.70;99.90;;;;;;5093739;28;20031;-72
2023/01/24 11:56:41;;;;;;;;;;;6.70;99.90;;;;;;5097263;28;20034;-72
2023/01/24 11:59:38;;;;;;;19.63;11.27;;;6.80;99.90;;;;;;5098430;28;19908;-73
2023/01/24 12:02:10;;;;;;;16.88;8.80;;;6.90;99.90;;;;;;5096030;28;20036;-72
2023/01/24 12:05:10;;;;;;;9.80;6.63;;;6.90;99.90;;;;;;5094901;28;20038;-73
2023/01/24 12:07:57;;;;;;;9.57;4.65;;;6.80;99.90;;;;;;5084600;28;20066;-73
2023/01/24 12:10:50;;;;;;;19.52;8.05;;;6.70;99.90;;;;;;5097105;28;20063;-73
2023/01/24 12:13:16;;;;;;;24.45;13.05;;;6.80;99.90;;;;;;5087263;28;20036;-72
2023/01/24 12:15:50;;;;;;;19.42;8.68;;;6.80;99.90;;;;;;5095337;28;20024;-72
2023/01/24 12:18:43;;;;;;;6.82;4.70;;;6.90;99.90;;;;;;5096219;28;20034;-72
2023/01/24 12:21:09;;;;;;;12.57;6.53;;;6.90;99.90;;;;;;5097371;28;20027;-72
2023/01/24 12:23:54;;;;;;;51.17;30.00;;;6.90;99.90;;;;;;5096723;28;20089;-73
2023/01/24 12:26:43;;;;;;;10.07;5.97;;;7.00;99.90;;;;;;5096933;28;20043;-72
2023/01/24 12:29:18;;;;;;;12.73;4.90;;;6.90;99.90;;;;;;5095557;28;20032;-72
2023/01/24 12:31:49;;;;;;;6.43;3.38;;;6.90;99.90;;;;;;5096009;28;20059;-72
2023/01/24 12:34:36;;;;;;;6.55;3.53;;;7.00;99.90;;;;;;5094012;28;20031;-72
2023/01/24 12:37:19;;;;;;;7.15;4.50;;;7.00;99.90;;;;;;5094635;28;20039;-72
2023/01/24 12:40:07;;;;;;;7.35;4.57;;;7.00;99.90;;;;;;5095586;28;20056;-72
2023/01/24 12:42:57;;;;;;;11.07;4.47;;;7.10;99.90;;;;;;5093516;28;20490;-72
2023/01/24 12:46:01;;;;;;;7.75;3.70;;;7.20;99.90;;;;;;5092950;28;20035;-73
2023/01/24 12:48:45;;;;;;;11.52;6.90;;;7.60;99.90;;;;;;5094883;28;20459;-73
2023/01/24 12:51:40;;;;;;;31.38;21.60;;;7.70;99.90;;;;;;5089450;28;20533;-72
2023/01/24 12:54:20;;;;;;;22.35;14.40;;;8.00;99.90;;;;;;5088414;28;20123;-71
2023/01/24 12:56:59;;;;;;;16.83;10.90;;;8.30;99.90;;;;;;5095282;28;20076;-72
2023/01/24 12:59:28;;;;;;;11.02;4.65;;;8.20;99.90;;;;;;5091414;28;20394;-71
2023/01/24 13:02:14;;;;;;;11.77;7.60;;;8.10;99.90;;;;;;5092027;28;20050;-72
2023/01/24 13:04:58;;;;;;;7.40;4.32;;;8.10;99.90;;;;;;5087350;28;20717;-71
2023/01/24 13:07:29;;;;;;;8.00;3.95;;;8.10;99.90;;;;;;5090139;28;20044;-71
2023/01/24 13:09:55;;;;;;;10.05;4.53;;;7.90;99.90;;;;;;5088854;28;20040;-72
2023/01/24 13:12:24;;;;;;;6.53;3.80;;;7.90;99.90;;;;;;5089938;28;20092;-72
2023/01/24 13:14:55;;;;;;;8.23;5.78;;;7.80;99.90;;;;;;5095737;28;20032;-72
2023/01/24 13:17:24;;;;;;;8.98;6.93;;;7.80;99.90;;;;;;5089003;28;20078;-71
2023/01/24 13:20:11;;;;;;;8.10;3.53;;;7.70;99.80;;;;;;5097541;28;20052;-72
2023/01/24 13:23:04;;;;;;;8.68;4.70;;;7.70;99.90;;;;;;5090286;28;20039;-72
2023/01/24 13:26:07;;;;;;;7.25;4.00;;;7.70;99.90;;;;;;5090046;28;20048;-71
2023/01/24 13:28:45;;;;;;;6.18;3.25;;;7.80;99.90;;;;;;5094114;28;20020;-71
2023/01/24 13:31:19;;;;;;;6.57;2.85;;;7.80;99.90;;;;;;5100073;28;20059;-71
2023/01/24 13:34:05;;;;;;;8.45;4.60;;;7.80;99.10;;;;;;5092830;28;20115;-71
2023/01/24 13:36:36;;;;;;;30.95;21.05;;;7.80;99.90;;;;;;5098090;28;20058;-71
2023/01/24 13:39:05;;;;;;;15.38;10.25;;;7.90;99.50;;;;;;5090506;28;20490;-71
2023/01/24 13:41:34;;;;;;;10.02;4.75;;;7.90;99.90;;;;;;5094760;28;20028;-72
2023/01/24 13:44:03;;;;;;;8.15;3.58;;;7.80;99.20;;;;;;5098760;28;20468;-72
2023/01/24 13:46:46;;;;;;;12.25;4.10;;;7.70;99.20;;;;;;5099478;28;21207;-72
2023/01/24 13:49:22;;;;;;;6.10;3.33;;;7.80;99.90;;;;;;5097234;28;20043;-72